sensor_id;sensor_type;location;lat;lon;timestamp;P1;durP1;ratioP1;P2;durP2;ratioP2
19026;SDS011;9646;52.034;5.554;2023-04-25T00:02:20;5.88;;;2.25;;
19026;SDS011;9646;52.034;5.554;2023-04-25T00:04:47;8.45;;;2.30;;
19026;SDS011;9646;52.034;5.554;2023-04-25T00:07:14;10.52;;;2.25;;
19026;SDS011;9646;52.034;5.554;2023-04-25T00:09:43;7.40;;;2.10;;
19026;SDS011;9646;52.034;5.554;2023-04-25T00:12:10;7.65;;;1.95;;
19026;SDS011;9646;52.034;5.554;2023-04-25T00:14:37;8.23;;;2.45;;
19026;SDS011;9646;52.034;5.554;2023-04-25T00:17:04;7.32;;;2.53;;
19026;SDS011;9646;52.034;5.554;2023-04-25T00:19:31;7.07;;;1.98;;
19026;SDS011;9646;52.034;5.554;2023-04-25T00:21:59;8.38;;;2.10;;
19026;SDS011;9646;52.034;5.554;2023-04-25T00:24:26;9.80;;;2.10;;
19026;SDS011;9646;52.034;5.554;2023-04-25T00:26:55;10.15;;;2.55;;
19026;SDS011;9646;52.034;5.554;2023-04-25T00:29:22;8.65;;;2.17;;
19026;SDS011;9646;52.034;5.554;2023-04-25T00:31:49;13.70;;;2.60;;
19026;SDS011;9646;52.034;5.554;2023-04-25T00:34:16;4.32;;;2.03;;
19026;SDS011;9646;52.034;5.554;2023-04-25T00:36:43;6.40;;;1.70;;
19026;SDS011;9646;52.034;5.554;2023-04-25T00:39:11;7.47;;;2.03;;
19026;SDS011;9646;52.034;5.554;2023-04-25T00:41:38;13.63;;;2.95;;
19026;SDS011;9646;52.034;5.554;2023-04-25T00:44:06;10.30;;;2.95;;
19026;SDS011;9646;52.034;5.554;2023-04-25T00:46:36;9.23;;;2.50;;
19026;SDS011;9646;52.034;5.554;2023-04-25T00:49:03;9.27;;;2.80;;
19026;SDS011;9646;52.034;5.554;2023-04-25T00:51:30;9.32;;;3.38;;
19026;SDS011;9646;52.034;5.554;2023-04-25T00:53:57;11.32;;;3.00;;
19026;SDS011;9646;52.034;5.554;2023-04-25T00:56:25;11.63;;;2.85;;
19026;SDS011;9646;52.034;5.554;2023-04-25T00:58:52;11.13;;;2.63;;
19026;SDS011;9646;52.034;5.554;2023-04-25T01:01:22;7.03;;;2.03;;
19026;SDS011;9646;52.034;5.554;2023-04-25T01:03:49;10.32;;;2.83;;
19026;SDS011;9646;52.034;5.554;2023-04-25T01:06:17;11.43;;;3.35;;
19026;SDS011;9646;52.034;5.554;2023-04-25T01:08:44;10.50;;;2.42;;
19026;SDS011;9646;52.034;5.554;2023-04-25T01:11:11;10.32;;;3.00;;
19026;SDS011;9646;52.034;5.554;2023-04-25T01:13:38;9.52;;;2.65;;
19026;SDS011;9646;52.034;5.554;2023-04-25T01:16:06;11.65;;;2.85;;
19026;SDS011;9646;52.034;5.554;2023-04-25T01:18:34;8.88;;;2.63;;
19026;SDS011;9646;52.034;5.554;2023-04-25T01:21:05;10.32;;;3.80;;
19026;SDS011;9646;52.034;5.554;2023-04-25T01:23:34;7.43;;;2.70;;
19026;SDS011;9646;52.034;5.554;2023-04-25T01:26:01;7.13;;;2.50;;
19026;SDS011;9646;52.034;5.554;2023-04-25T01:28:28;7.90;;;2.85;;
19026;SDS011;9646;52.034;5.554;2023-04-25T01:30:55;11.38;;;3.00;;
19026;SDS011;9646;52.034;5.554;2023-04-25T01:33:23;8.20;;;2.50;;
19026;SDS011;9646;52.034;5.554;2023-04-25T01:35:50;6.40;;;2.80;;
19026;SDS011;9646;52.034;5.554;2023-04-25T01:38:18;8.05;;;2.50;;
19026;SDS011;9646;52.034;5.554;2023-04-25T01:40:45;8.57;;;3.30;;
19026;SDS011;9646;52.034;5.554;2023-04-25T01:43:13;8.70;;;2.70;;
19026;SDS011;9646;52.034;5.554;2023-04-25T01:45:40;8.82;;;2.67;;
19026;SDS011;9646;52.034;5.554;2023-04-25T01:48:07;9.18;;;2.63;;
19026;SDS011;9646;52.034;5.554;2023-04-25T01:50:34;10.48;;;2.10;;
19026;SDS011;9646;52.034;5.554;2023-04-25T01:53:01;9.05;;;2.80;;
19026;SDS011;9646;52.034;5.554;2023-04-25T01:55:30;9.63;;;2.65;;
19026;SDS011;9646;52.034;5.554;2023-04-25T01:57:57;10.52;;;2.63;;
19026;SDS011;9646;52.034;5.554;2023-04-25T02:00:25;11.30;;;2.78;;
19026;SDS011;9646;52.034;5.554;2023-04-25T02:02:52;8.80;;;2.65;;
19026;SDS011;9646;52.034;5.554;2023-04-25T02:05:19;10.38;;;2.60;;
19026;SDS011;9646;52.034;5.554;2023-04-25T02:07:46;7.18;;;2.50;;
19026;SDS011;9646;52.034;5.554;2023-04-25T02:10:14;10.30;;;3.05;;
19026;SDS011;9646;52.034;5.554;2023-04-25T02:12:42;13.60;;;2.60;;
19026;SDS011;9646;52.034;5.554;2023-04-25T02:15:09;11.38;;;2.75;;
19026;SDS011;9646;52.034;5.554;2023-04-25T02:17:36;8.23;;;2.67;;
19026;SDS011;9646;52.034;5.554;2023-04-25T02:20:04;11.65;;;3.08;;
19026;SDS011;9646;52.034;5.554;2023-04-25T02:22:31;11.77;;;2.92;;
19026;SDS011;9646;52.034;5.554;2023-04-25T02:24:59;7.38;;;2.70;;
19026;SDS011;9646;52.034;5.554;2023-04-25T02:27:26;11.85;;;2.70;;
19026;SDS011;9646;52.034;5.554;2023-04-25T02:29:54;9.57;;;2.40;;
19026;SDS011;9646;52.034;5.554;2023-04-25T02:32:21;8.05;;;2.22;;
19026;SDS011;9646;52.034;5.554;2023-04-25T02:34:48;8.70;;;1.77;;
19026;SDS011;9646;52.034;5.554;2023-04-25T02:37:15;8.15;;;2.47;;
19026;SDS011;9646;52.034;5.554;2023-04-25T02:39:42;8.77;;;2.38;;
19026;SDS011;9646;52.034;5.554;2023-04-25T02:42:10;5.95;;;2.28;;
19026;SDS011;9646;52.034;5.554;2023-04-25T02:44:37;7.32;;;2.22;;
19026;SDS011;9646;52.034;5.554;2023-04-25T02:47:05;9.75;;;2.33;;
19026;SDS011;9646;52.034;5.554;2023-04-25T02:49:32;10.00;;;2.65;;
19026;SDS011;9646;52.034;5.554;2023-04-25T02:51:59;9.23;;;2.50;;
19026;SDS011;9646;52.034;5.554;2023-04-25T02:54:26;10.32;;;2.78;;
19026;SDS011;9646;52.034;5.554;2023-04-25T02:56:54;6.85;;;2.17;;
19026;SDS011;9646;52.034;5.554;2023-04-25T02:59:21;6.03;;;1.70;;
19026;SDS011;9646;52.034;5.554;2023-04-25T03:01:48;12.02;;;2.50;;
19026;SDS011;9646;52.034;5.554;2023-04-25T03:04:16;5.65;;;2.08;;
19026;SDS011;9646;52.034;5.554;2023-04-25T03:06:44;8.48;;;2.28;;
19026;SDS011;9646;52.034;5.554;2023-04-25T03:09:11;4.45;;;1.80;;
19026;SDS011;9646;52.034;5.554;2023-04-25T03:11:38;5.93;;;1.70;;
19026;SDS011;9646;52.034;5.554;2023-04-25T03:14:05;12.07;;;2.45;;
19026;SDS011;9646;52.034;5.554;2023-04-25T03:16:32;5.93;;;2.20;;
19026;SDS011;9646;52.034;5.554;2023-04-25T03:18:59;7.30;;;2.35;;
19026;SDS011;9646;52.034;5.554;2023-04-25T03:21:28;6.63;;;1.98;;
19026;SDS011;9646;52.034;5.554;2023-04-25T03:23:56;4.90;;;1.80;;
19026;SDS011;9646;52.034;5.554;2023-04-25T03:26:23;6.38;;;2.10;;
19026;SDS011;9646;52.034;5.554;2023-04-25T03:28:50;7.10;;;1.92;;
19026;SDS011;9646;52.034;5.554;2023-04-25T03:31:17;7.10;;;2.42;;
19026;SDS011;9646;52.034;5.554;2023-04-25T03:33:44;10.30;;;2.17;;
19026;SDS011;9646;52.034;5.554;2023-04-25T03:36:12;8.15;;;2.17;;
19026;SDS011;9646;52.034;5.554;2023-04-25T03:38:40;9.85;;;3.08;;
19026;SDS011;9646;52.034;5.554;2023-04-25T03:41:07;11.32;;;2.70;;
19026;SDS011;9646;52.034;5.554;2023-04-25T03:43:34;9.32;;;2.90;;
19026;SDS011;9646;52.034;5.554;2023-04-25T03:46:01;9.13;;;2.75;;
19026;SDS011;9646;52.034;5.554;2023-04-25T03:48:28;3.85;;;1.92;;
19026;SDS011;9646;52.034;5.554;2023-04-25T03:50:55;8.65;;;2.42;;
19026;SDS011;9646;52.034;5.554;2023-04-25T03:53:22;9.75;;;2.95;;
19026;SDS011;9646;52.034;5.554;2023-04-25T03:55:51;5.90;;;2.17;;
19026;SDS011;9646;52.034;5.554;2023-04-25T03:58:18;8.73;;;2.40;;
19026;SDS011;9646;52.034;5.554;2023-04-25T04:00:45;8.13;;;2.80;;
19026;SDS011;9646;52.034;5.554;2023-04-25T04:03:12;12.75;;;3.30;;
19026;SDS011;9646;52.034;5.554;2023-04-25T04:05:39;9.63;;;2.70;;
19026;SDS011;9646;52.034;5.554;2023-04-25T04:08:06;7.25;;;2.60;;
19026;SDS011;9646;52.034;5.554;2023-04-25T04:10:33;6.07;;;1.92;;
19026;SDS011;9646;52.034;5.554;2023-04-25T04:13:02;6.25;;;2.35;;
19026;SDS011;9646;52.034;5.554;2023-04-25T04:15:29;3.95;;;1.83;;
19026;SDS011;9646;52.034;5.554;2023-04-25T04:17:57;10.40;;;2.83;;
19026;SDS011;9646;52.034;5.554;2023-04-25T04:20:27;7.40;;;2.30;;
19026;SDS011;9646;52.034;5.554;2023-04-25T04:22:54;6.25;;;2.20;;
19026;SDS011;9646;52.034;5.554;2023-04-25T04:25:21;8.40;;;3.03;;
19026;SDS011;9646;52.034;5.554;2023-04-25T04:27:49;7.25;;;2.42;;
19026;SDS011;9646;52.034;5.554;2023-04-25T04:30:20;8.95;;;2.35;;
19026;SDS011;9646;52.034;5.554;2023-04-25T04:32:49;7.65;;;2.53;;
19026;SDS011;9646;52.034;5.554;2023-04-25T04:35:16;6.25;;;2.05;;
19026;SDS011;9646;52.034;5.554;2023-04-25T04:37:43;7.40;;;2.15;;
19026;SDS011;9646;52.034;5.554;2023-04-25T04:40:10;8.32;;;2.70;;
19026;SDS011;9646;52.034;5.554;2023-04-25T04:42:40;7.18;;;1.92;;
19026;SDS011;9646;52.034;5.554;2023-04-25T04:45:07;5.88;;;2.03;;
19026;SDS011;9646;52.034;5.554;2023-04-25T04:47:36;7.88;;;2.72;;
19026;SDS011;9646;52.034;5.554;2023-04-25T04:50:04;9.02;;;2.03;;
19026;SDS011;9646;52.034;5.554;2023-04-25T04:52:32;9.65;;;3.17;;
19026;SDS011;9646;52.034;5.554;2023-04-25T04:54:59;8.20;;;2.35;;
19026;SDS011;9646;52.034;5.554;2023-04-25T04:57:26;6.88;;;2.40;;
19026;SDS011;9646;52.034;5.554;2023-04-25T04:59:53;6.10;;;2.13;;
19026;SDS011;9646;52.034;5.554;2023-04-25T05:02:21;8.25;;;2.60;;
19026;SDS011;9646;52.034;5.554;2023-04-25T05:04:49;6.50;;;2.05;;
19026;SDS011;9646;52.034;5.554;2023-04-25T05:07:16;7.88;;;2.20;;
19026;SDS011;9646;52.034;5.554;2023-04-25T05:09:43;8.40;;;2.90;;
19026;SDS011;9646;52.034;5.554;2023-04-25T05:12:10;5.13;;;1.95;;
19026;SDS011;9646;52.034;5.554;2023-04-25T05:14:37;8.60;;;2.53;;
19026;SDS011;9646;52.034;5.554;2023-04-25T05:17:04;7.03;;;1.40;;
19026;SDS011;9646;52.034;5.554;2023-04-25T05:19:33;5.22;;;2.28;;
19026;SDS011;9646;52.034;5.554;2023-04-25T05:22:02;5.97;;;1.88;;
19026;SDS011;9646;52.034;5.554;2023-04-25T05:24:29;5.20;;;1.70;;
19026;SDS011;9646;52.034;5.554;2023-04-25T05:26:56;9.02;;;2.58;;
19026;SDS011;9646;52.034;5.554;2023-04-25T05:29:23;7.68;;;2.30;;
19026;SDS011;9646;52.034;5.554;2023-04-25T05:31:50;6.40;;;1.85;;
19026;SDS011;9646;52.034;5.554;2023-04-25T05:34:18;5.45;;;1.63;;
19026;SDS011;9646;52.034;5.554;2023-04-25T05:36:45;8.80;;;2.38;;
19026;SDS011;9646;52.034;5.554;2023-04-25T05:39:15;9.75;;;2.03;;
19026;SDS011;9646;52.034;5.554;2023-04-25T05:41:43;6.30;;;1.67;;
19026;SDS011;9646;52.034;5.554;2023-04-25T05:44:10;4.90;;;1.60;;
19026;SDS011;9646;52.034;5.554;2023-04-25T05:46:37;9.85;;;1.65;;
19026;SDS011;9646;52.034;5.554;2023-04-25T05:49:04;8.18;;;1.42;;
19026;SDS011;9646;52.034;5.554;2023-04-25T05:51:31;6.50;;;1.73;;
19026;SDS011;9646;52.034;5.554;2023-04-25T05:53:58;5.95;;;1.63;;
19026;SDS011;9646;52.034;5.554;2023-04-25T05:56:27;6.60;;;1.98;;
19026;SDS011;9646;52.034;5.554;2023-04-25T05:58:54;9.23;;;1.95;;
19026;SDS011;9646;52.034;5.554;2023-04-25T06:01:21;8.48;;;1.90;;
19026;SDS011;9646;52.034;5.554;2023-04-25T06:03:48;6.72;;;2.05;;
19026;SDS011;9646;52.034;5.554;2023-04-25T06:06:16;9.20;;;1.88;;
19026;SDS011;9646;52.034;5.554;2023-04-25T06:08:43;6.43;;;1.58;;
19026;SDS011;9646;52.034;5.554;2023-04-25T06:11:10;8.93;;;1.48;;
19026;SDS011;9646;52.034;5.554;2023-04-25T06:13:39;10.85;;;2.13;;
19026;SDS011;9646;52.034;5.554;2023-04-25T06:16:06;8.80;;;2.10;;
19026;SDS011;9646;52.034;5.554;2023-04-25T06:18:33;4.18;;;1.48;;
19026;SDS011;9646;52.034;5.554;2023-04-25T06:21:00;6.90;;;1.90;;
19026;SDS011;9646;52.034;5.554;2023-04-25T06:23:27;6.07;;;1.35;;
19026;SDS011;9646;52.034;5.554;2023-04-25T06:25:54;8.45;;;1.98;;
19026;SDS011;9646;52.034;5.554;2023-04-25T06:28:21;4.63;;;1.63;;
19026;SDS011;9646;52.034;5.554;2023-04-25T06:30:50;7.40;;;2.22;;
19026;SDS011;9646;52.034;5.554;2023-04-25T06:33:17;2.60;;;1.25;;
19026;SDS011;9646;52.034;5.554;2023-04-25T06:35:45;5.78;;;1.70;;
19026;SDS011;9646;52.034;5.554;2023-04-25T06:38:12;6.18;;;2.28;;
19026;SDS011;9646;52.034;5.554;2023-04-25T06:40:39;7.65;;;2.25;;
19026;SDS011;9646;52.034;5.554;2023-04-25T06:43:06;6.15;;;2.40;;
19026;SDS011;9646;52.034;5.554;2023-04-25T06:45:33;6.00;;;2.30;;
19026;SDS011;9646;52.034;5.554;2023-04-25T06:48:02;10.02;;;3.65;;
19026;SDS011;9646;52.034;5.554;2023-04-25T06:50:29;7.07;;;2.65;;
19026;SDS011;9646;52.034;5.554;2023-04-25T06:52:56;8.60;;;2.72;;
19026;SDS011;9646;52.034;5.554;2023-04-25T06:55:23;5.68;;;2.00;;
19026;SDS011;9646;52.034;5.554;2023-04-25T06:57:50;6.93;;;2.20;;
19026;SDS011;9646;52.034;5.554;2023-04-25T07:00:18;8.48;;;2.10;;
19026;SDS011;9646;52.034;5.554;2023-04-25T07:02:45;5.00;;;2.03;;
19026;SDS011;9646;52.034;5.554;2023-04-25T07:05:13;5.70;;;1.67;;
19026;SDS011;9646;52.034;5.554;2023-04-25T07:07:40;9.63;;;2.67;;
19026;SDS011;9646;52.034;5.554;2023-04-25T07:10:07;8.77;;;2.60;;
19026;SDS011;9646;52.034;5.554;2023-04-25T07:12:34;5.85;;;1.90;;
19026;SDS011;9646;52.034;5.554;2023-04-25T07:15:01;8.07;;;2.20;;
19026;SDS011;9646;52.034;5.554;2023-04-25T07:17:31;6.85;;;2.13;;
19026;SDS011;9646;52.034;5.554;2023-04-25T07:19:59;5.78;;;1.83;;
19026;SDS011;9646;52.034;5.554;2023-04-25T07:22:27;8.27;;;2.70;;
19026;SDS011;9646;52.034;5.554;2023-04-25T07:24:54;5.40;;;2.33;;
19026;SDS011;9646;52.034;5.554;2023-04-25T07:27:21;7.22;;;2.00;;
19026;SDS011;9646;52.034;5.554;2023-04-25T07:29:48;6.55;;;2.00;;
19026;SDS011;9646;52.034;5.554;2023-04-25T07:32:15;8.45;;;2.10;;
19026;SDS011;9646;52.034;5.554;2023-04-25T07:34:42;6.50;;;1.80;;
19026;SDS011;9646;52.034;5.554;2023-04-25T07:37:09;9.02;;;2.10;;
19026;SDS011;9646;52.034;5.554;2023-04-25T07:39:38;6.95;;;2.40;;
19026;SDS011;9646;52.034;5.554;2023-04-25T07:42:05;9.13;;;1.88;;
19026;SDS011;9646;52.034;5.554;2023-04-25T07:44:33;7.10;;;2.03;;
19026;SDS011;9646;52.034;5.554;2023-04-25T07:47:03;6.90;;;1.80;;
19026;SDS011;9646;52.034;5.554;2023-04-25T07:49:31;5.13;;;1.75;;
19026;SDS011;9646;52.034;5.554;2023-04-25T07:51:59;5.55;;;1.63;;
19026;SDS011;9646;52.034;5.554;2023-04-25T07:54:26;5.90;;;2.13;;
19026;SDS011;9646;52.034;5.554;2023-04-25T07:56:55;3.42;;;1.20;;
19026;SDS011;9646;52.034;5.554;2023-04-25T07:59:22;6.03;;;1.80;;
19026;SDS011;9646;52.034;5.554;2023-04-25T08:01:49;5.32;;;1.52;;
19026;SDS011;9646;52.034;5.554;2023-04-25T08:04:16;6.18;;;1.73;;
19026;SDS011;9646;52.034;5.554;2023-04-25T08:06:43;6.03;;;1.33;;
19026;SDS011;9646;52.034;5.554;2023-04-25T08:09:10;7.30;;;1.80;;
19026;SDS011;9646;52.034;5.554;2023-04-25T08:11:37;6.15;;;1.67;;
19026;SDS011;9646;52.034;5.554;2023-04-25T08:14:06;9.18;;;1.40;;
19026;SDS011;9646;52.034;5.554;2023-04-25T08:16:33;6.55;;;1.50;;
19026;SDS011;9646;52.034;5.554;2023-04-25T08:19:00;7.55;;;1.58;;
19026;SDS011;9646;52.034;5.554;2023-04-25T08:21:27;6.63;;;1.48;;
19026;SDS011;9646;52.034;5.554;2023-04-25T08:23:54;6.05;;;1.95;;
19026;SDS011;9646;52.034;5.554;2023-04-25T08:26:23;6.20;;;1.50;;
19026;SDS011;9646;52.034;5.554;2023-04-25T08:28:50;5.93;;;1.63;;
19026;SDS011;9646;52.034;5.554;2023-04-25T08:31:18;9.32;;;1.67;;
19026;SDS011;9646;52.034;5.554;2023-04-25T08:33:45;7.25;;;1.98;;
19026;SDS011;9646;52.034;5.554;2023-04-25T08:36:12;5.45;;;1.25;;
19026;SDS011;9646;52.034;5.554;2023-04-25T08:38:39;3.70;;;1.20;;
19026;SDS011;9646;52.034;5.554;2023-04-25T08:41:06;7.57;;;1.42;;
19026;SDS011;9646;52.034;5.554;2023-04-25T08:43:34;5.65;;;1.38;;
19026;SDS011;9646;52.034;5.554;2023-04-25T08:46:01;6.90;;;1.90;;
19026;SDS011;9646;52.034;5.554;2023-04-25T08:48:31;6.78;;;1.60;;
19026;SDS011;9646;52.034;5.554;2023-04-25T08:50:59;5.20;;;1.23;;
19026;SDS011;9646;52.034;5.554;2023-04-25T08:53:28;5.07;;;1.50;;
19026;SDS011;9646;52.034;5.554;2023-04-25T08:55:56;3.25;;;0.95;;
19026;SDS011;9646;52.034;5.554;2023-04-25T08:58:24;4.93;;;1.30;;
19026;SDS011;9646;52.034;5.554;2023-04-25T09:00:51;2.88;;;1.00;;
19026;SDS011;9646;52.034;5.554;2023-04-25T09:03:18;3.35;;;0.98;;
19026;SDS011;9646;52.034;5.554;2023-04-25T09:05:47;2.70;;;1.10;;
19026;SDS011;9646;52.034;5.554;2023-04-25T09:08:15;3.40;;;1.10;;
19026;SDS011;9646;52.034;5.554;2023-04-25T09:10:42;5.22;;;1.30;;
19026;SDS011;9646;52.034;5.554;2023-04-25T09:13:09;2.90;;;1.10;;
19026;SDS011;9646;52.034;5.554;2023-04-25T09:15:47;8.80;;;1.63;;
19026;SDS011;9646;52.034;5.554;2023-04-25T09:18:22;2.95;;;1.13;;
19026;SDS011;9646;52.034;5.554;2023-04-25T09:20:51;4.47;;;1.13;;
19026;SDS011;9646;52.034;5.554;2023-04-25T09:23:19;2.25;;;0.93;;
19026;SDS011;9646;52.034;5.554;2023-04-25T09:25:47;3.25;;;1.15;;
19026;SDS011;9646;52.034;5.554;2023-04-25T09:28:14;4.97;;;1.35;;
19026;SDS011;9646;52.034;5.554;2023-04-25T09:30:41;4.82;;;1.50;;
19026;SDS011;9646;52.034;5.554;2023-04-25T09:33:09;5.65;;;1.38;;
19026;SDS011;9646;52.034;5.554;2023-04-25T09:35:38;9.93;;;1.80;;
19026;SDS011;9646;52.034;5.554;2023-04-25T09:38:10;8.13;;;1.60;;
19026;SDS011;9646;52.034;5.554;2023-04-25T09:40:40;3.40;;;1.20;;
19026;SDS011;9646;52.034;5.554;2023-04-25T09:43:10;2.67;;;1.13;;
19026;SDS011;9646;52.034;5.554;2023-04-25T09:45:40;4.90;;;1.10;;
19026;SDS011;9646;52.034;5.554;2023-04-25T09:48:10;4.65;;;1.30;;
19026;SDS011;9646;52.034;5.554;2023-04-25T09:50:37;6.38;;;1.50;;
19026;SDS011;9646;52.034;5.554;2023-04-25T09:53:05;4.30;;;1.30;;
19026;SDS011;9646;52.034;5.554;2023-04-25T09:55:34;3.60;;;1.10;;
19026;SDS011;9646;52.034;5.554;2023-04-25T09:58:03;2.45;;;0.80;;
19026;SDS011;9646;52.034;5.554;2023-04-25T10:00:32;2.65;;;0.95;;
19026;SDS011;9646;52.034;5.554;2023-04-25T10:02:59;3.33;;;0.93;;
19026;SDS011;9646;52.034;5.554;2023-04-25T10:05:28;2.95;;;1.10;;
19026;SDS011;9646;52.034;5.554;2023-04-25T10:07:58;3.20;;;0.98;;
19026;SDS011;9646;52.034;5.554;2023-04-25T10:10:25;8.50;;;1.67;;
19026;SDS011;9646;52.034;5.554;2023-04-25T10:12:54;8.55;;;1.30;;
19026;SDS011;9646;52.034;5.554;2023-04-25T10:15:21;5.65;;;1.20;;
19026;SDS011;9646;52.034;5.554;2023-04-25T10:17:49;6.32;;;1.20;;
19026;SDS011;9646;52.034;5.554;2023-04-25T10:20:16;1.73;;;0.70;;
19026;SDS011;9646;52.034;5.554;2023-04-25T10:22:44;3.15;;;0.95;;
19026;SDS011;9646;52.034;5.554;2023-04-25T10:25:13;4.85;;;0.80;;
19026;SDS011;9646;52.034;5.554;2023-04-25T10:27:40;4.32;;;1.45;;
19026;SDS011;9646;52.034;5.554;2023-04-25T10:30:09;5.75;;;1.48;;
19026;SDS011;9646;52.034;5.554;2023-04-25T10:32:39;4.45;;;1.13;;
19026;SDS011;9646;52.034;5.554;2023-04-25T10:35:12;3.38;;;0.80;;
19026;SDS011;9646;52.034;5.554;2023-04-25T10:40:22;3.40;;;1.13;;
19026;SDS011;9646;52.034;5.554;2023-04-25T10:42:51;3.53;;;1.13;;
19026;SDS011;9646;52.034;5.554;2023-04-25T10:45:19;4.07;;;0.95;;
19026;SDS011;9646;52.034;5.554;2023-04-25T10:47:46;4.40;;;0.95;;
19026;SDS011;9646;52.034;5.554;2023-04-25T10:50:14;4.25;;;1.17;;
19026;SDS011;9646;52.034;5.554;2023-04-25T10:52:42;2.50;;;1.00;;
19026;SDS011;9646;52.034;5.554;2023-04-25T10:55:09;5.88;;;1.10;;
19026;SDS011;9646;52.034;5.554;2023-04-25T10:57:37;2.35;;;0.65;;
19026;SDS011;9646;52.034;5.554;2023-04-25T11:00:05;5.32;;;1.75;;
19026;SDS011;9646;52.034;5.554;2023-04-25T11:02:37;3.63;;;1.33;;
19026;SDS011;9646;52.034;5.554;2023-04-25T11:05:05;3.28;;;0.95;;
19026;SDS011;9646;52.034;5.554;2023-04-25T11:07:34;3.42;;;0.65;;
19026;SDS011;9646;52.034;5.554;2023-04-25T11:10:04;2.35;;;0.75;;
19026;SDS011;9646;52.034;5.554;2023-04-25T11:12:32;1.90;;;0.70;;
19026;SDS011;9646;52.034;5.554;2023-04-25T11:15:00;4.47;;;0.90;;
19026;SDS011;9646;52.034;5.554;2023-04-25T11:17:27;5.13;;;1.40;;
19026;SDS011;9646;52.034;5.554;2023-04-25T11:19:56;4.18;;;0.90;;
19026;SDS011;9646;52.034;5.554;2023-04-25T11:22:23;3.70;;;1.23;;
19026;SDS011;9646;52.034;5.554;2023-04-25T11:24:50;4.78;;;1.10;;
19026;SDS011;9646;52.034;5.554;2023-04-25T11:27:17;2.92;;;1.00;;
19026;SDS011;9646;52.034;5.554;2023-04-25T11:29:44;3.03;;;1.10;;
19026;SDS011;9646;52.034;5.554;2023-04-25T11:32:14;6.18;;;1.20;;
19026;SDS011;9646;52.034;5.554;2023-04-25T11:34:44;11.35;;;1.88;;
19026;SDS011;9646;52.034;5.554;2023-04-25T11:37:12;4.65;;;1.48;;
19026;SDS011;9646;52.034;5.554;2023-04-25T11:39:43;3.95;;;0.90;;
19026;SDS011;9646;52.034;5.554;2023-04-25T11:42:12;2.25;;;1.10;;
19026;SDS011;9646;52.034;5.554;2023-04-25T11:44:39;4.88;;;1.40;;
19026;SDS011;9646;52.034;5.554;2023-04-25T11:47:06;7.00;;;1.35;;
19026;SDS011;9646;52.034;5.554;2023-04-25T11:49:33;1.75;;;0.70;;
19026;SDS011;9646;52.034;5.554;2023-04-25T11:52:01;3.60;;;0.90;;
19026;SDS011;9646;52.034;5.554;2023-04-25T11:54:30;2.13;;;0.98;;
19026;SDS011;9646;52.034;5.554;2023-04-25T11:56:57;2.25;;;0.80;;
19026;SDS011;9646;52.034;5.554;2023-04-25T11:59:24;3.83;;;1.13;;
19026;SDS011;9646;52.034;5.554;2023-04-25T12:01:52;1.77;;;0.98;;
19026;SDS011;9646;52.034;5.554;2023-04-25T12:04:20;4.03;;;1.10;;
19026;SDS011;9646;52.034;5.554;2023-04-25T12:06:48;5.20;;;1.50;;
19026;SDS011;9646;52.034;5.554;2023-04-25T12:09:16;3.55;;;0.90;;
19026;SDS011;9646;52.034;5.554;2023-04-25T12:11:45;2.83;;;0.90;;
19026;SDS011;9646;52.034;5.554;2023-04-25T12:14:19;3.97;;;1.20;;
19026;SDS011;9646;52.034;5.554;2023-04-25T12:16:48;5.68;;;1.45;;
19026;SDS011;9646;52.034;5.554;2023-04-25T12:19:16;7.40;;;1.20;;
19026;SDS011;9646;52.034;5.554;2023-04-25T12:21:43;2.65;;;0.88;;
19026;SDS011;9646;52.034;5.554;2023-04-25T12:24:11;4.97;;;1.25;;
19026;SDS011;9646;52.034;5.554;2023-04-25T12:26:47;2.08;;;0.80;;
19026;SDS011;9646;52.034;5.554;2023-04-25T12:29:15;3.38;;;1.00;;
19026;SDS011;9646;52.034;5.554;2023-04-25T12:31:43;3.00;;;1.02;;
19026;SDS011;9646;52.034;5.554;2023-04-25T12:34:11;8.10;;;1.45;;
19026;SDS011;9646;52.034;5.554;2023-04-25T12:36:38;7.97;;;1.30;;
19026;SDS011;9646;52.034;5.554;2023-04-25T12:39:05;6.25;;;1.55;;
19026;SDS011;9646;52.034;5.554;2023-04-25T12:41:32;7.38;;;1.40;;
19026;SDS011;9646;52.034;5.554;2023-04-25T12:44:01;4.80;;;1.70;;
19026;SDS011;9646;52.034;5.554;2023-04-25T12:46:28;4.80;;;1.30;;
19026;SDS011;9646;52.034;5.554;2023-04-25T12:48:55;5.43;;;1.25;;
19026;SDS011;9646;52.034;5.554;2023-04-25T12:51:22;4.65;;;1.42;;
19026;SDS011;9646;52.034;5.554;2023-04-25T12:53:50;4.65;;;1.80;;
19026;SDS011;9646;52.034;5.554;2023-04-25T12:56:18;5.72;;;1.38;;
19026;SDS011;9646;52.034;5.554;2023-04-25T12:58:45;4.30;;;1.20;;
19026;SDS011;9646;52.034;5.554;2023-04-25T13:01:14;4.68;;;1.35;;
19026;SDS011;9646;52.034;5.554;2023-04-25T13:03:41;4.25;;;1.27;;
19026;SDS011;9646;52.034;5.554;2023-04-25T13:06:08;4.97;;;1.27;;
19026;SDS011;9646;52.034;5.554;2023-04-25T13:08:36;4.15;;;1.23;;
19026;SDS011;9646;52.034;5.554;2023-04-25T13:11:03;3.60;;;1.75;;
19026;SDS011;9646;52.034;5.554;2023-04-25T13:13:30;4.45;;;1.17;;
19026;SDS011;9646;52.034;5.554;2023-04-25T13:15:59;5.65;;;1.30;;
19026;SDS011;9646;52.034;5.554;2023-04-25T13:18:28;3.85;;;1.52;;
19026;SDS011;9646;52.034;5.554;2023-04-25T13:20:55;3.88;;;1.25;;
19026;SDS011;9646;52.034;5.554;2023-04-25T13:23:22;4.10;;;1.50;;
19026;SDS011;9646;52.034;5.554;2023-04-25T13:25:50;4.57;;;1.13;;
19026;SDS011;9646;52.034;5.554;2023-04-25T13:28:17;5.53;;;1.30;;
19026;SDS011;9646;52.034;5.554;2023-04-25T13:30:44;4.13;;;1.40;;
19026;SDS011;9646;52.034;5.554;2023-04-25T13:33:12;5.70;;;1.20;;
19026;SDS011;9646;52.034;5.554;2023-04-25T13:35:41;7.25;;;1.40;;
19026;SDS011;9646;52.034;5.554;2023-04-25T13:38:11;2.83;;;1.40;;
19026;SDS011;9646;52.034;5.554;2023-04-25T13:40:38;3.22;;;1.33;;
19026;SDS011;9646;52.034;5.554;2023-04-25T13:43:05;3.70;;;1.40;;
19026;SDS011;9646;52.034;5.554;2023-04-25T13:45:33;5.20;;;1.60;;
19026;SDS011;9646;52.034;5.554;2023-04-25T13:48:00;5.97;;;2.13;;
19026;SDS011;9646;52.034;5.554;2023-04-25T13:50:27;5.07;;;1.75;;
19026;SDS011;9646;52.034;5.554;2023-04-25T13:52:56;10.35;;;2.03;;
19026;SDS011;9646;52.034;5.554;2023-04-25T13:55:23;9.40;;;2.80;;
19026;SDS011;9646;52.034;5.554;2023-04-25T13:57:50;9.15;;;2.65;;
19026;SDS011;9646;52.034;5.554;2023-04-25T14:00:17;11.10;;;3.20;;
19026;SDS011;9646;52.034;5.554;2023-04-25T14:02:45;5.45;;;1.73;;
19026;SDS011;9646;52.034;5.554;2023-04-25T14:05:12;3.58;;;1.65;;
19026;SDS011;9646;52.034;5.554;2023-04-25T14:07:39;4.65;;;1.52;;
19026;SDS011;9646;52.034;5.554;2023-04-25T14:10:08;8.38;;;2.47;;
19026;SDS011;9646;52.034;5.554;2023-04-25T14:12:35;2.67;;;1.33;;
19026;SDS011;9646;52.034;5.554;2023-04-25T14:15:02;5.90;;;2.17;;
19026;SDS011;9646;52.034;5.554;2023-04-25T14:17:30;3.92;;;1.55;;
19026;SDS011;9646;52.034;5.554;2023-04-25T14:19:57;5.97;;;1.50;;
19026;SDS011;9646;52.034;5.554;2023-04-25T14:22:24;4.32;;;1.20;;
19026;SDS011;9646;52.034;5.554;2023-04-25T14:24:51;6.32;;;1.65;;
19026;SDS011;9646;52.034;5.554;2023-04-25T14:27:19;4.35;;;1.52;;
19026;SDS011;9646;52.034;5.554;2023-04-25T14:29:46;4.53;;;1.52;;
19026;SDS011;9646;52.034;5.554;2023-04-25T14:32:13;5.97;;;1.33;;
19026;SDS011;9646;52.034;5.554;2023-04-25T14:34:41;3.58;;;1.48;;
19026;SDS011;9646;52.034;5.554;2023-04-25T14:37:08;6.78;;;2.20;;
19026;SDS011;9646;52.034;5.554;2023-04-25T14:39:35;4.97;;;1.50;;
19026;SDS011;9646;52.034;5.554;2023-04-25T14:42:02;4.88;;;1.50;;
19026;SDS011;9646;52.034;5.554;2023-04-25T14:44:31;5.20;;;1.30;;
19026;SDS011;9646;52.034;5.554;2023-04-25T14:46:58;4.60;;;1.17;;
19026;SDS011;9646;52.034;5.554;2023-04-25T14:49:25;4.05;;;1.30;;
19026;SDS011;9646;52.034;5.554;2023-04-25T14:51:53;4.15;;;1.85;;
19026;SDS011;9646;52.034;5.554;2023-04-25T14:54:20;5.28;;;1.48;;
19026;SDS011;9646;52.034;5.554;2023-04-25T14:56:47;6.25;;;1.70;;
19026;SDS011;9646;52.034;5.554;2023-04-25T14:59:14;3.67;;;1.30;;
19026;SDS011;9646;52.034;5.554;2023-04-25T15:01:43;3.28;;;1.13;;
19026;SDS011;9646;52.034;5.554;2023-04-25T15:04:10;4.00;;;1.20;;
19026;SDS011;9646;52.034;5.554;2023-04-25T15:06:37;4.78;;;1.40;;